createdAt,value
2019-03-21T00:00:51.292Z,9.20
2019-03-21T00:03:22.397Z,9.30
2019-03-21T00:05:53.163Z,9.30
2019-03-21T00:08:23.969Z,9.20
2019-03-21T00:11:29.882Z,9.20
2019-03-21T00:14:07.251Z,9.30
2019-03-21T00:16:36.394Z,9.20
2019-03-21T00:19:07.155Z,9.10
2019-03-21T00:21:37.920Z,9.10
2019-03-21T00:24:26.814Z,9.00
2019-03-21T00:26:57.638Z,9.10
2019-03-21T00:29:28.729Z,9.20
2019-03-21T00:31:59.585Z,9.00
2019-03-21T00:34:30.466Z,9.00
2019-03-21T00:37:01.220Z,9.10
2019-03-21T00:39:33.130Z,9.20
2019-03-21T00:42:04.109Z,9.10
2019-03-21T00:44:34.901Z,9.10
2019-03-21T00:47:05.682Z,9.10
2019-03-21T00:49:36.466Z,8.90
2019-03-21T00:52:07.242Z,8.90
2019-03-21T00:54:38.321Z,9.00
2019-03-21T00:57:09.327Z,9.20
2019-03-21T00:59:40.203Z,9.20
2019-03-21T01:02:11.036Z,9.10
2019-03-21T01:04:41.874Z,9.10
2019-03-21T01:07:12.696Z,9.10
2019-03-21T01:09:43.455Z,9.00
2019-03-21T01:12:14.410Z,8.90
2019-03-21T01:14:45.466Z,8.90
2019-03-21T01:17:16.437Z,8.90
2019-03-21T01:19:47.213Z,8.90
2019-03-21T01:22:17.984Z,8.90
2019-03-21T01:24:48.764Z,8.90
2019-03-21T01:27:19.525Z,8.90
2019-03-21T01:29:50.274Z,8.60
2019-03-21T01:32:21.128Z,8.70
2019-03-21T01:34:51.930Z,8.70
2019-03-21T01:37:22.778Z,8.70
2019-03-21T01:39:53.540Z,8.70
2019-03-21T01:42:24.409Z,8.60
2019-03-21T01:44:55.210Z,8.60
2019-03-21T01:47:26.064Z,8.70
2019-03-21T01:49:56.897Z,8.70
2019-03-21T01:52:27.730Z,8.70
2019-03-21T01:54:58.583Z,8.80
2019-03-21T01:57:29.331Z,8.70
2019-03-21T02:00:00.161Z,8.70
2019-03-21T02:02:31.528Z,8.70
2019-03-21T02:05:02.398Z,8.70
2019-03-21T02:07:33.382Z,8.80
2019-03-21T05:00:44.784Z,7.60
2019-03-21T05:03:15.707Z,7.70
2019-03-21T05:05:46.591Z,7.70
2019-03-21T05:08:17.448Z,7.60
2019-03-21T05:10:48.194Z,7.50
2019-03-21T05:13:19.055Z,7.50
2019-03-21T05:15:49.859Z,7.40
2019-03-21T05:18:24.112Z,7.40
2019-03-21T05:20:54.886Z,7.40
2019-03-21T05:23:25.797Z,7.20
2019-03-21T05:25:56.535Z,7.30
2019-03-21T05:28:27.368Z,7.20
2019-03-21T05:31:01.474Z,7.20
2019-03-21T05:33:32.282Z,7.20
2019-03-21T05:36:03.111Z,7.20
2019-03-21T05:38:34.080Z,7.20
2019-03-21T05:41:04.927Z,7.30
2019-03-21T05:43:39.772Z,7.30
2019-03-21T05:46:10.659Z,7.30
2019-03-21T05:48:41.538Z,7.30
2019-03-21T05:51:12.326Z,7.20
2019-03-21T05:53:43.242Z,7.20
2019-03-21T05:56:14.138Z,7.10
2019-03-21T05:58:44.898Z,6.90
2019-03-21T06:01:15.702Z,7.00
2019-03-21T06:03:49.936Z,7.10
2019-03-21T06:06:37.385Z,7.20
2019-03-21T06:09:09.806Z,7.20
2019-03-21T06:11:42.149Z,7.30
2019-03-21T06:14:12.958Z,7.20
2019-03-21T06:16:43.937Z,7.00
2019-03-21T06:19:41.711Z,7.00
2019-03-21T06:22:43.703Z,7.20
2019-03-21T06:25:37.756Z,7.20
2019-03-21T06:28:08.812Z,7.40
2019-03-21T06:30:39.635Z,7.40
2019-03-21T06:33:10.543Z,7.30
2019-03-21T06:35:41.335Z,7.30
2019-03-21T06:38:12.118Z,7.20
2019-03-21T06:40:43.032Z,7.40
2019-03-21T06:43:13.980Z,7.20
2019-03-21T06:45:48.225Z,7.30
2019-03-21T06:48:17.426Z,7.30
2019-03-21T06:50:48.234Z,7.40
2019-03-21T06:53:19.202Z,7.70
2019-03-21T06:55:50.042Z,7.90
2019-03-21T06:58:20.858Z,7.80
2019-03-21T07:00:51.692Z,7.90
2019-03-21T07:03:22.490Z,8.00
2019-03-21T07:05:53.323Z,8.20
2019-03-21T07:08:24.407Z,8.30
2019-03-21T07:10:58.218Z,8.40
2019-03-21T07:13:28.169Z,8.60
2019-03-21T07:15:59.012Z,8.70
2019-03-21T07:18:29.884Z,9.00
2019-03-21T07:21:01.343Z,9.10
2019-03-21T07:23:32.561Z,8.90
2019-03-21T07:26:03.579Z,8.90
2019-03-21T07:28:34.475Z,8.80
2019-03-21T07:31:07.359Z,8.90
2019-03-21T07:33:38.122Z,9.00
2019-03-21T07:36:09.078Z,9.00
2019-03-21T07:38:39.899Z,9.10
2019-03-21T07:41:10.694Z,9.30
2019-03-21T07:43:41.463Z,9.40
2019-03-21T07:46:12.236Z,9.40
2019-03-21T07:48:43.269Z,9.60
2019-03-21T07:51:14.141Z,9.60
2019-03-21T07:53:44.943Z,9.70
2019-03-21T07:56:15.930Z,9.80
2019-03-21T07:58:46.831Z,9.90
2019-03-21T08:01:17.748Z,10.00
2019-03-21T08:03:48.593Z,10.10
2019-03-21T08:06:19.393Z,10.20
2019-03-21T08:08:50.168Z,10.30
2019-03-21T08:11:20.938Z,10.60
2019-03-21T08:13:51.855Z,10.70
2019-03-21T08:16:22.743Z,11.10
2019-03-21T08:18:53.874Z,11.30
2019-03-21T08:21:24.673Z,11.10
2019-03-21T08:23:55.453Z,11.00
2019-03-21T08:26:26.242Z,11.10
2019-03-21T08:28:57.130Z,11.30
2019-03-21T08:31:28.036Z,11.20
2019-03-21T08:33:58.834Z,11.30
2019-03-21T08:36:29.662Z,11.30
2019-03-21T08:39:00.512Z,11.70
2019-03-21T08:41:31.336Z,11.90
2019-03-21T08:44:02.155Z,11.90
2019-03-21T08:46:33.098Z,11.90
2019-03-21T08:49:03.955Z,11.90
2019-03-21T08:51:34.874Z,12.00
2019-03-21T08:54:05.878Z,12.20
2019-03-21T08:56:36.884Z,12.10
2019-03-21T08:59:07.885Z,12.00
2019-03-21T09:01:38.687Z,12.50
2019-03-21T09:04:09.601Z,12.60
2019-03-21T09:06:43.627Z,12.60
2019-03-21T09:09:14.378Z,12.50
2019-03-21T09:11:45.191Z,12.60
2019-03-21T09:14:15.956Z,12.90
2019-03-21T09:16:46.852Z,13.00
2019-03-21T09:19:17.868Z,12.90
2019-03-21T09:21:48.868Z,13.00
2019-03-21T09:24:19.738Z,13.20
2019-03-21T09:26:51.618Z,13.20
2019-03-21T09:29:22.638Z,13.40
2019-03-21T09:31:53.883Z,13.60
2019-03-21T09:34:24.757Z,13.60
2019-03-21T09:36:55.795Z,13.60
2019-03-21T09:39:26.683Z,13.70
2019-03-21T09:41:57.746Z,13.60
2019-03-21T09:44:29.232Z,13.70
2019-03-21T09:47:00.162Z,13.90
2019-03-21T09:49:31.083Z,14.10
2019-03-21T09:52:01.975Z,14.10
2019-03-21T09:54:32.794Z,14.10
2019-03-21T09:57:03.918Z,14.60
2019-03-21T09:59:34.717Z,14.90
2019-03-21T10:02:05.547Z,14.70
2019-03-21T10:04:36.478Z,14.80
2019-03-21T10:07:07.294Z,14.90
2019-03-21T10:09:38.247Z,14.90
2019-03-21T10:12:09.440Z,14.90
2019-03-21T10:14:41.421Z,15.00
2019-03-21T10:17:12.323Z,14.90
2019-03-21T10:19:43.215Z,15.00
2019-03-21T10:22:14.379Z,15.00
2019-03-21T10:24:45.480Z,15.00
2019-03-21T10:27:16.576Z,14.50
2019-03-21T10:29:47.561Z,14.80
2019-03-21T10:32:18.382Z,15.00
2019-03-21T10:34:49.156Z,14.30
2019-03-21T10:37:20.001Z,14.20
2019-03-21T10:39:50.883Z,14.40
2019-03-21T10:42:21.865Z,14.70
2019-03-21T10:44:52.877Z,15.00
2019-03-21T10:47:23.713Z,14.90
2019-03-21T10:49:54.498Z,14.70
2019-03-21T10:52:25.337Z,14.50
2019-03-21T10:54:56.095Z,14.50
2019-03-21T10:57:26.851Z,14.70
2019-03-21T10:59:57.719Z,14.90
2019-03-21T11:02:28.526Z,15.10
2019-03-21T11:04:59.297Z,15.00
2019-03-21T11:07:30.119Z,15.00
2019-03-21T11:10:01.225Z,15.00
2019-03-21T11:12:32.498Z,14.90
2019-03-21T11:15:03.319Z,14.90
2019-03-21T11:17:34.407Z,14.90
2019-03-21T11:20:05.487Z,15.10
2019-03-21T11:22:36.311Z,15.20
2019-03-21T11:25:07.238Z,15.00
2019-03-21T11:27:38.250Z,14.40
2019-03-21T11:30:15.972Z,14.60
2019-03-21T11:32:41.963Z,14.90
2019-03-21T11:35:12.791Z,15.00
2019-03-21T11:37:43.813Z,15.10
2019-03-21T11:40:14.647Z,15.20
2019-03-21T11:42:45.504Z,14.90
2019-03-21T11:45:16.546Z,15.00
2019-03-21T11:47:47.374Z,15.20
2019-03-21T11:50:18.432Z,15.20
2019-03-21T11:52:49.374Z,15.30
2019-03-21T11:55:20.376Z,15.30
2019-03-21T11:57:51.370Z,15.20
2019-03-21T12:00:22.142Z,15.30
2019-03-21T12:02:53.017Z,15.30
2019-03-21T12:05:24.059Z,15.40
2019-03-21T12:07:54.867Z,15.40
2019-03-21T12:10:25.946Z,15.40
2019-03-21T12:12:56.890Z,15.30
2019-03-21T12:15:27.799Z,15.30
2019-03-21T12:17:58.668Z,15.20
2019-03-21T12:20:36.117Z,15.20
2019-03-21T12:23:07.091Z,15.30
2019-03-21T12:25:37.955Z,15.30
2019-03-21T12:28:09.029Z,15.40
2019-03-21T12:30:43.467Z,15.10
2019-03-21T12:33:14.644Z,15.30
2019-03-21T12:35:45.505Z,15.30
2019-03-21T12:38:16.322Z,15.30
2019-03-21T12:40:47.111Z,15.30
2019-03-21T12:43:17.846Z,15.30
2019-03-21T12:45:48.719Z,15.40
2019-03-21T12:48:19.738Z,15.50
2019-03-21T12:50:50.685Z,15.40
2019-03-21T12:53:21.566Z,15.40
2019-03-21T12:55:52.439Z,15.40
2019-03-21T12:58:23.232Z,15.60
2019-03-21T13:00:54.161Z,15.60
2019-03-21T13:03:24.993Z,15.60
2019-03-21T13:05:55.896Z,15.50
2019-03-21T13:08:33.628Z,15.50
2019-03-21T13:11:00.890Z,15.50
2019-03-21T13:13:32.037Z,15.50
2019-03-21T13:16:02.866Z,15.60
2019-03-21T13:18:33.634Z,15.60
2019-03-21T13:21:04.415Z,15.70
2019-03-21T13:23:35.239Z,15.70
2019-03-21T13:26:06.183Z,15.80
2019-03-21T13:28:37.111Z,15.90
2019-03-21T13:31:07.972Z,16.00
2019-03-21T13:33:38.902Z,16.00
2019-03-21T13:36:09.963Z,16.00
2019-03-21T13:38:40.779Z,15.90
2019-03-21T13:41:12.751Z,16.00
2019-03-21T13:43:43.673Z,16.10
2019-03-21T13:46:14.484Z,16.10
2019-03-21T13:48:45.398Z,16.10
2019-03-21T13:51:16.435Z,16.20
2019-03-21T13:53:47.357Z,16.30
2019-03-21T13:56:18.414Z,16.30
2019-03-21T13:58:50.758Z,16.30
2019-03-21T14:01:21.702Z,16.50
2019-03-21T14:03:52.618Z,16.60
2019-03-21T14:06:23.601Z,16.70
2019-03-21T14:08:54.430Z,16.80
2019-03-21T14:11:25.376Z,16.90
2019-03-21T14:13:56.323Z,16.90
2019-03-21T14:16:27.415Z,17.00
2019-03-21T14:18:58.190Z,17.00
2019-03-21T14:21:29.139Z,17.10
2019-03-21T14:23:59.921Z,17.10
2019-03-21T14:26:30.882Z,17.20
2019-03-21T14:29:12.236Z,17.30
2019-03-21T14:31:34.225Z,17.50
2019-03-21T14:34:05.123Z,17.60
2019-03-21T14:36:36.257Z,17.70
2019-03-21T14:39:08.043Z,17.70
2019-03-21T14:41:38.937Z,17.90
2019-03-21T14:44:12.877Z,17.80
2019-03-21T14:46:43.741Z,17.90
2019-03-21T14:49:14.594Z,18.20
2019-03-21T14:51:45.637Z,18.40
2019-03-21T14:54:16.595Z,18.50
2019-03-21T14:59:18.286Z,18.50
2019-03-21T15:01:49.346Z,18.50
2019-03-21T15:04:20.151Z,18.80
2019-03-21T15:06:51.110Z,18.80
2019-03-21T15:09:21.912Z,19.00
2019-03-21T15:11:52.935Z,19.20
2019-03-21T15:14:23.747Z,19.10
2019-03-21T15:16:54.596Z,18.80
2019-03-21T15:19:25.346Z,18.30
2019-03-21T15:21:56.194Z,17.90
2019-03-21T15:24:27.054Z,17.70
2019-03-21T15:26:57.794Z,17.50
2019-03-21T15:29:28.592Z,17.50
2019-03-21T15:31:59.390Z,17.40
2019-03-21T15:34:30.151Z,17.40
2019-03-21T15:37:00.884Z,17.30
2019-03-21T15:39:31.632Z,17.20
2019-03-21T15:42:02.378Z,17.20
2019-03-21T15:44:33.162Z,17.10
2019-03-21T15:47:04.009Z,17.10
2019-03-21T15:49:35.662Z,17.10
2019-03-21T15:52:06.418Z,17.00
2019-03-21T15:54:37.208Z,16.90
2019-03-21T15:57:08.154Z,16.90
2019-03-21T15:59:39.280Z,16.90
2019-03-21T16:02:11.358Z,16.90
2019-03-21T16:04:42.290Z,16.80
2019-03-21T16:07:13.239Z,16.80
2019-03-21T16:09:44.162Z,16.80
2019-03-21T16:12:15.019Z,16.70
2019-03-21T16:14:46.041Z,16.70
2019-03-21T16:17:17.019Z,16.70
2019-03-21T16:19:48.033Z,16.70
2019-03-21T16:22:18.946Z,16.70
2019-03-21T16:24:50.044Z,16.70
2019-03-21T16:27:20.933Z,16.60
2019-03-21T16:29:51.832Z,16.60
2019-03-21T16:32:22.836Z,16.60
2019-03-21T16:34:53.629Z,16.50
2019-03-21T16:37:24.666Z,16.50
2019-03-21T16:39:55.857Z,16.50
2019-03-21T16:42:26.775Z,16.50
2019-03-21T16:44:57.727Z,16.40
2019-03-21T16:47:28.654Z,16.40
2019-03-21T16:49:59.952Z,16.30
2019-03-21T16:52:30.796Z,16.30
2019-03-21T16:55:02.608Z,16.30
2019-03-21T16:57:33.926Z,16.20
2019-03-21T17:00:09.722Z,16.20
2019-03-21T17:02:40.719Z,16.20
2019-03-21T17:05:12.120Z,16.10
2019-03-21T17:07:43.156Z,16.10
2019-03-21T17:10:14.367Z,16.10
2019-03-21T17:12:45.647Z,16.10
2019-03-21T17:15:16.524Z,16.00
2019-03-21T17:17:47.293Z,16.00
2019-03-21T17:20:18.134Z,16.00
2019-03-21T17:22:48.963Z,15.90
2019-03-21T17:25:19.865Z,15.90
2019-03-21T17:27:50.627Z,15.90
2019-03-21T17:30:21.411Z,15.80
2019-03-21T17:32:52.172Z,15.80
2019-03-21T17:35:23.019Z,15.80
2019-03-21T17:37:53.871Z,15.70
2019-03-21T17:40:24.772Z,15.70
2019-03-21T17:42:55.647Z,15.60
2019-03-21T17:45:26.567Z,15.60
2019-03-21T17:47:57.598Z,15.60
2019-03-21T17:50:28.418Z,15.60
2019-03-21T17:52:59.294Z,15.50
2019-03-21T17:55:30.249Z,15.50
2019-03-21T18:38:02.362Z,15.50
2019-03-21T18:40:33.330Z,15.00
2019-03-21T18:43:04.356Z,14.90
2019-03-21T18:45:35.471Z,15.00
2019-03-21T18:48:06.357Z,14.90
2019-03-21T18:50:37.229Z,14.90
2019-03-21T18:53:08.121Z,14.90
2019-03-21T18:55:38.990Z,14.90
2019-03-21T18:58:09.827Z,14.90
2019-03-21T19:00:42.962Z,14.80
2019-03-21T19:03:13.838Z,14.80
2019-03-21T19:05:44.771Z,14.80
2019-03-21T19:08:15.599Z,14.80
2019-03-21T19:10:46.620Z,14.70
2019-03-21T19:13:17.905Z,14.70
2019-03-21T19:15:48.695Z,14.70
2019-03-21T19:18:19.694Z,14.70
2019-03-21T19:20:50.663Z,14.70
2019-03-21T19:23:21.780Z,14.60
2019-03-21T19:25:52.881Z,14.60
2019-03-21T19:28:23.734Z,14.60
2019-03-21T19:30:54.689Z,14.60
2019-03-21T19:33:25.529Z,14.60
2019-03-21T19:35:56.406Z,14.60
2019-03-21T19:38:27.495Z,14.60
2019-03-21T19:40:58.499Z,14.60
2019-03-21T19:43:29.369Z,14.60
2019-03-21T19:46:00.357Z,14.50
2019-03-21T19:48:31.327Z,14.50
2019-03-21T19:51:02.354Z,14.40
2019-03-21T19:53:33.333Z,14.40
2019-03-21T19:56:08.766Z,14.30
2019-03-21T19:58:37.671Z,14.30
2019-03-21T20:01:08.620Z,14.20
2019-03-21T20:03:39.556Z,14.20
2019-03-21T20:06:10.377Z,14.10
2019-03-21T20:08:41.188Z,14.10
2019-03-21T20:11:12.260Z,14.10
2019-03-21T20:13:43.095Z,14.00
2019-03-21T20:16:13.955Z,14.00
2019-03-21T20:18:44.847Z,13.90
2019-03-21T20:21:15.903Z,13.90
2019-03-21T20:23:46.771Z,13.90
2019-03-21T20:26:17.719Z,13.90
2019-03-21T20:28:48.634Z,13.80
2019-03-21T20:31:19.683Z,13.80
2019-03-21T20:33:50.555Z,13.80
2019-03-21T20:36:21.887Z,13.80
2019-03-21T20:38:52.766Z,13.70
2019-03-21T20:41:23.576Z,13.70
2019-03-21T20:43:54.427Z,13.60
2019-03-21T20:46:25.311Z,13.60
2019-03-21T20:48:54.398Z,13.60
2019-03-21T20:51:25.194Z,13.60
2019-03-21T20:53:56.158Z,13.60
2019-03-21T20:56:27.257Z,13.60
2019-03-21T20:58:58.099Z,13.60
2019-03-21T21:01:28.956Z,13.50
2019-03-21T21:03:59.765Z,13.40
2019-03-21T21:06:31.863Z,13.50
2019-03-21T21:09:03.238Z,13.40
2019-03-21T21:11:35.175Z,13.30
2019-03-21T21:14:06.248Z,13.20
2019-03-21T21:16:37.086Z,13.20
2019-03-21T21:19:07.887Z,13.20
2019-03-21T21:21:38.799Z,13.10
2019-03-21T21:24:09.615Z,13.20
2019-03-21T21:26:40.585Z,13.20
2019-03-21T21:29:11.391Z,13.10
2019-03-21T21:31:42.288Z,13.20
2019-03-21T21:34:13.267Z,13.20
2019-03-21T21:36:44.215Z,13.20
2019-03-21T21:39:16.194Z,13.20
2019-03-21T21:41:47.123Z,13.20
2019-03-21T21:44:17.907Z,13.20
2019-03-21T21:46:48.771Z,13.10
2019-03-21T21:49:19.753Z,13.20
2019-03-21T21:51:50.900Z,13.20
2019-03-21T21:54:21.955Z,13.20
2019-03-21T21:56:52.932Z,13.10
2019-03-21T21:59:23.829Z,13.10
2019-03-21T22:01:54.632Z,13.10
2019-03-21T22:04:25.438Z,12.90
2019-03-21T22:06:56.288Z,12.90
2019-03-21T22:09:27.187Z,12.90
2019-03-21T22:11:58.095Z,12.90
2019-03-21T22:14:28.947Z,12.80
2019-03-21T22:17:00.009Z,12.80
2019-03-21T22:19:30.794Z,12.90
2019-03-21T22:22:01.614Z,12.80
2019-03-21T22:24:32.470Z,12.80
2019-03-21T22:27:03.290Z,12.90
2019-03-21T22:29:34.655Z,12.80
2019-03-21T22:32:05.462Z,12.80
2019-03-21T22:34:36.525Z,12.80
2019-03-21T22:37:09.576Z,12.70
2019-03-21T22:39:40.396Z,12.70
2019-03-21T22:42:11.164Z,12.60
2019-03-21T22:44:42.470Z,12.60
2019-03-21T22:47:13.384Z,12.70
2019-03-21T22:49:44.541Z,12.70
2019-03-21T22:52:15.321Z,12.70
2019-03-21T22:54:46.188Z,12.80
2019-03-21T22:57:17.053Z,12.70
2019-03-21T22:59:48.245Z,12.60
2019-03-21T23:02:19.108Z,12.60
2019-03-21T23:04:49.965Z,12.40
2019-03-21T23:07:23.555Z,12.30
2019-03-21T23:09:54.548Z,12.40
